Time;durP1;ratioP1;P1;durP2;ratioP2;P2;SDS_P1;SDS_P2;PMS_P1;PMS_P2;Temp;Humidity;BMP_temperature;BMP_pressure;BME280_temperature;BME280_humidity;BME280_pressure;Samples;Min_cycle;Max_cycle;Signal;HPM_P1;HPM_P2
2021/04/27 00:00:31;;;;;;;12.40;9.68;;;;;;;9.62;58.64;100724.64;1735488;81;21190;-69
2021/04/27 00:03:00;;;;;;;10.93;8.78;;;;;;;9.62;58.62;100723.32;1758750;80;21209;-51
2021/04/27 00:05:28;;;;;;;11.03;9.00;;;;;;;9.61;58.57;100715.00;1742791;81;21182;-68
2021/04/27 00:07:56;;;;;;;10.28;8.33;;;;;;;9.60;58.54;100720.72;1751207;81;21216;-69
2021/04/27 00:10:24;;;;;;;13.30;9.38;;;;;;;9.59;58.57;100717.65;1752709;81;21127;-51
2021/04/27 00:12:52;;;;;;;11.73;8.80;;;;;;;9.58;58.69;100711.95;1761144;80;21168;-51
2021/04/27 00:15:24;;;;;;;11.12;9.28;;;;;;;9.62;58.72;100715.44;1761225;81;21225;-68
2021/04/27 00:17:52;;;;;;;11.73;9.10;;;;;;;9.62;58.80;100715.02;1757188;81;21187;-68
2021/04/27 00:20:21;;;;;;;11.80;8.78;;;;;;;9.65;58.85;100722.00;1759234;81;21150;-68
2021/04/27 00:22:49;;;;;;;9.00;7.03;;;;;;;9.57;59.31;100726.40;1750370;80;21158;-68
2021/04/27 00:25:17;;;;;;;10.08;6.75;;;;;;;9.69;59.62;100726.83;1739455;81;21157;-68
2021/04/27 00:27:48;;;;;;;9.15;7.60;;;;;;;9.79;60.01;100723.27;1761551;81;21742;-67
2021/04/27 00:30:15;;;;;;;9.98;7.08;;;;;;;9.79;60.25;100722.84;1760662;81;21559;-50
2021/04/27 00:32:43;;;;;;;8.53;7.22;;;;;;;9.80;60.55;100717.12;1759415;81;21301;-67
2021/04/27 00:35:12;;;;;;;10.32;8.43;;;;;;;9.84;60.79;100715.37;1760387;81;21106;-49
2021/04/27 00:37:40;;;;;;;8.90;7.58;;;;;;;9.86;60.68;100717.11;1759190;80;21119;-67
2021/04/27 00:40:10;;;;;;;11.50;8.98;;;;;;;9.90;60.64;100717.53;1758155;81;21566;-49
2021/04/27 00:42:39;;;;;;;11.93;8.23;;;;;;;9.93;60.67;100708.78;1761663;80;21134;-51
2021/04/27 00:45:12;;;;;;;10.57;7.63;;;;;;;9.95;60.65;100706.98;1761675;81;21466;-49
2021/04/27 00:47:40;;;;;;;10.03;7.85;;;;;;;9.97;60.68;100709.17;1761650;80;21139;-65
2021/04/27 00:50:12;;;;;;;10.10;8.15;;;;;;;9.96;60.75;100708.31;1759164;81;21139;-67
2021/04/27 00:52:39;;;;;;;8.63;7.15;;;;;;;9.95;60.98;100701.30;1761346;81;21175;-67
2021/04/27 00:55:08;;;;;;;11.22;8.33;;;;;;;9.95;61.10;100703.04;1730931;82;21591;-49
2021/04/27 00:57:36;;;;;;;10.28;7.75;;;;;;;9.92;61.70;100710.52;1733908;81;21161;-49
2021/04/27 01:00:07;;;;;;;8.80;7.47;;;;;;;9.92;61.66;100710.97;1712606;83;21589;-49
2021/04/27 01:02:35;;;;;;;7.95;6.50;;;;;;;9.89;61.82;100707.90;1750609;81;21142;-67
2021/04/27 01:05:08;;;;;;;7.83;6.35;;;;;;;9.89;62.29;100706.58;1761245;81;21656;-50
2021/04/27 01:07:37;;;;;;;7.20;6.12;;;;;;;9.99;62.29;100703.92;1760681;80;21590;-50
2021/04/27 01:10:10;;;;;;;7.45;5.83;;;;;;;10.09;62.23;100711.75;1736504;81;21427;-50
2021/04/27 01:12:45;;;;;;;7.70;6.22;;;;;;;10.16;62.24;100709.95;1751897;81;21614;-67
2021/04/27 01:15:18;;;;;;;6.97;5.72;;;;;;;10.23;61.99;100713.44;1731587;82;21175;-50
2021/04/27 01:17:46;;;;;;;7.22;6.20;;;;;;;10.26;62.01;100718.69;1724814;82;21168;-66
2021/04/27 01:20:39;;;;;;;6.05;5.15;;;;;;;10.37;61.82;100715.98;1742279;81;21593;-66
2021/04/27 01:23:30;;;;;;;5.58;4.42;;;;;;;10.45;61.79;100712.02;1727999;82;21167;-66
2021/04/27 01:26:08;;;;;;;6.85;5.60;;;;;;;10.47;61.82;100714.20;1732690;81;21142;-65
2021/04/27 01:28:41;;;;;;;6.08;4.72;;;;;;;10.59;61.83;100707.55;1761410;81;21617;-65
2021/04/27 01:31:09;;;;;;;6.28;5.22;;;;;;;10.65;61.97;100708.81;1726607;82;21184;-64
2021/04/27 01:33:37;;;;;;;7.00;5.47;;;;;;;10.71;61.77;100710.09;1708166;83;21124;-51
2021/04/27 01:36:06;;;;;;;5.90;5.30;;;;;;;10.74;61.59;100709.18;1753630;82;21159;-63
2021/04/27 01:38:36;;;;;;;;;;;;;;;10.77;61.49;100711.80;1737326;82;21697;-51
2021/04/27 01:41:04;;;;;;;6.53;4.75;;;;;;;10.82;61.46;100713.06;1738387;82;20253;-63
2021/04/27 01:43:32;;;;;;;6.62;4.85;;;;;;;10.80;61.34;100709.59;1731214;82;21137;-63
2021/04/27 01:46:05;;;;;;;8.63;5.53;;;;;;;10.79;60.84;100711.34;1726201;83;21131;-64
2021/04/27 01:48:35;;;;;;;6.53;5.45;;;;;;;10.75;61.11;100704.80;1747810;82;21581;-52
2021/04/27 01:51:07;;;;;;;6.72;5.28;;;;;;;10.82;61.43;100705.16;1756133;80;21182;-54
2021/04/27 01:53:46;;;;;;;6.90;5.33;;;;;;;10.78;61.43;100709.59;1755913;81;21143;-64
2021/04/27 01:56:14;;;;;;;7.28;5.75;;;;;;;10.74;61.59;100705.69;1736895;82;21138;-65
2021/04/27 01:58:42;;;;;;;9.28;6.90;;;;;;;10.70;61.62;100708.34;1755959;82;21146;-53
2021/04/27 02:01:10;;;;;;;7.85;6.10;;;;;;;10.67;61.67;100704.42;1728068;82;21547;-52
2021/04/27 02:03:44;;;;;;;10.88;5.92;;;;;;;10.64;61.76;100700.91;1755867;82;21276;-66
2021/04/27 02:06:23;;;;;;;7.92;5.95;;;;;;;10.67;61.88;100689.94;1819330;77;22187;-52
2021/04/27 02:09:04;;;;;;;7.20;5.60;;;;;;;10.63;61.97;100695.22;1725860;83;21122;-52
2021/04/27 02:11:39;;;;;;;8.15;6.10;;;;;;;10.59;62.11;100694.84;1688651;83;21129;-67
2021/04/27 02:14:09;;;;;;;7.83;5.42;;;;;;;10.54;62.12;100687.84;1714184;84;21682;-54
2021/04/27 02:17:02;;;;;;;7.10;5.42;;;;;;;10.50;62.20;100679.97;1728985;83;21173;-67
2021/04/27 02:19:30;;;;;;;9.30;5.00;;;;;;;10.47;62.25;100675.61;1693753;84;21202;-67
2021/04/27 02:22:14;;;;;;;8.40;5.85;;;;;;;10.50;62.32;100669.44;1814276;77;22190;-66
2021/04/27 02:24:50;;;;;;;7.50;5.80;;;;;;;10.45;62.45;100673.86;1753836;81;21596;-67
2021/04/27 02:27:18;;;;;;;6.85;5.15;;;;;;;10.41;62.64;100671.24;1731661;82;21186;-53
2021/04/27 02:29:46;;;;;;;6.60;5.05;;;;;;;10.39;62.92;100664.27;1749303;80;21103;-67
2021/04/27 02:32:16;;;;;;;7.92;5.80;;;;;;;10.40;63.03;100666.01;1761947;81;21200;-67
2021/04/27 02:34:46;;;;;;;9.23;5.95;;;;;;;10.38;63.27;100659.39;1737094;81;21137;-66
2021/04/27 02:37:16;;;;;;;;;;;;;;;10.45;63.10;100656.33;1681299;83;21146;-66
2021/04/27 02:39:44;;;;;;;9.40;5.80;;;;;;;10.42;63.21;100657.66;1727354;81;20135;-53
2021/04/27 02:42:12;;;;;;;6.97;5.10;;;;;;;10.30;63.42;100660.33;1756385;81;21550;-66
2021/04/27 02:44:58;;;;;;;7.47;5.62;;;;;;;10.35;63.34;100663.39;1761807;81;21197;-65
2021/04/27 02:47:40;;;;;;;6.83;5.12;;;;;;;10.38;63.43;100651.95;1804608;77;22182;-52
2021/04/27 02:50:11;;;;;;;7.15;4.55;;;;;;;10.34;63.49;100659.01;1741207;81;21150;-65
2021/04/27 02:52:41;;;;;;;8.13;5.45;;;;;;;10.26;63.55;100652.46;1755516;81;21281;-52
2021/04/27 02:55:12;;;;;;;7.08;5.17;;;;;;;10.24;63.57;100650.28;1761798;81;21130;-65
2021/04/27 02:57:39;;;;;;;7.12;5.33;;;;;;;10.22;63.49;100644.16;1727667;81;21099;-67
2021/04/27 03:00:09;;;;;;;7.35;5.58;;;;;;;10.19;63.42;100646.80;1736240;81;21155;-67
2021/04/27 03:02:40;;;;;;;9.55;5.25;;;;;;;10.09;63.50;100647.31;1740911;81;21131;-66
2021/04/27 03:05:10;;;;;;;9.63;5.67;;;;;;;10.01;63.71;100643.84;1761525;80;21131;-66
2021/04/27 03:07:40;;;;;;;6.55;5.12;;;;;;;9.93;63.70;100649.61;1731671;81;21084;-66
2021/04/27 03:10:09;;;;;;;8.10;5.53;;;;;;;9.92;63.77;100659.24;1747036;81;21162;-53
2021/04/27 03:12:38;;;;;;;6.47;4.78;;;;;;;9.91;63.80;100666.70;1761866;80;21111;-53
2021/04/27 03:15:09;;;;;;;7.33;5.35;;;;;;;9.89;63.83;100665.83;1757222;80;21139;-67
2021/04/27 03:17:39;;;;;;;8.25;5.33;;;;;;;9.85;63.92;100669.35;1731618;81;21276;-53
2021/04/27 03:20:10;;;;;;;5.73;4.43;;;;;;;9.86;63.91;100676.36;1757636;81;21166;-65
2021/04/27 03:22:41;;;;;;;8.45;5.22;;;;;;;9.93;63.72;100688.59;1761501;80;21180;-53
2021/04/27 03:25:11;;;;;;;7.12;5.33;;;;;;;9.97;63.57;100685.50;1745712;80;21573;-66
2021/04/27 03:27:40;;;;;;;6.65;5.65;;;;;;;9.95;63.39;100680.69;1734602;81;21150;-54
2021/04/27 03:30:16;;;;;;;11.88;5.40;;;;;;;9.92;63.51;100677.65;1718551;83;21591;-53
2021/04/27 03:32:45;;;;;;;12.43;5.65;;;;;;;9.90;63.42;100676.78;1718540;83;21153;-54
2021/04/27 03:35:14;;;;;;;12.75;5.22;;;;;;;9.91;63.45;100675.04;1695559;83;21159;-52
2021/04/27 03:37:42;;;;;;;10.58;5.55;;;;;;;9.99;63.47;100668.42;1700269;83;21170;-53
2021/04/27 03:40:12;;;;;;;10.20;5.80;;;;;;;10.09;63.36;100662.23;1713373;84;21176;-53
2021/04/27 03:42:41;;;;;;;;;;;;;;;10.16;63.30;100667.86;1711844;82;21119;-67
2021/04/27 03:45:17;;;;;;;8.03;4.47;;;;;;;10.25;63.18;100673.53;1691593;85;20441;-67
2021/04/27 03:47:45;;;;;;;16.70;6.22;;;;;;;10.29;63.01;100670.42;1690053;82;21171;-53
2021/04/27 03:50:17;;;;;;;13.58;5.97;;;;;;;10.30;63.00;100660.33;1756739;82;21091;-53
2021/04/27 03:52:47;;;;;;;9.13;5.60;;;;;;;10.32;63.02;100658.14;1736344;80;21156;-52
2021/04/27 03:55:16;;;;;;;12.13;5.58;;;;;;;10.34;62.98;100658.12;1732798;82;21646;-66
2021/04/27 03:57:44;;;;;;;13.40;6.72;;;;;;;10.36;62.93;100654.61;1745248;82;21296;-53
2021/04/27 04:00:14;;;;;;;8.35;5.47;;;;;;;10.43;62.76;100658.52;1754603;81;21273;-53
2021/04/27 04:02:42;;;;;;;14.23;5.15;;;;;;;10.46;62.63;100654.55;1728477;82;21228;-53
2021/04/27 04:05:12;;;;;;;16.20;5.55;;;;;;;10.50;62.57;100661.55;1732595;82;21260;-65
2021/04/27 04:07:41;;;;;;;17.00;5.58;;;;;;;10.56;62.35;100667.66;1738673;82;21115;-66
2021/04/27 04:10:19;;;;;;;13.20;5.42;;;;;;;10.61;62.15;100669.34;1752543;81;21116;-54
2021/04/27 04:12:47;;;;;;;11.97;5.95;;;;;;;10.65;62.02;100668.02;1754000;80;21265;-66
2021/04/27 04:15:19;;;;;;;11.90;5.17;;;;;;;10.70;61.87;100680.70;1731048;82;21147;-65
2021/04/27 04:17:54;;;;;;;6.30;4.50;;;;;;;10.78;61.74;100677.14;1805302;77;22595;-64
2021/04/27 04:20:24;;;;;;;7.67;5.35;;;;;;;10.79;61.59;100677.11;1743561;80;21146;-52
2021/04/27 04:23:18;;;;;;;8.73;5.40;;;;;;;10.88;61.49;100655.54;1813866;77;22140;-63
2021/04/27 04:25:47;;;;;;;8.05;4.87;;;;;;;10.85;61.37;100659.05;1775236;80;21292;-63
2021/04/27 04:28:14;;;;;;;9.43;5.97;;;;;;;10.82;61.29;100651.19;1747517;81;21174;-65
2021/04/27 04:30:42;;;;;;;8.18;5.65;;;;;;;10.81;61.45;100649.47;1747447;81;21265;-64
2021/04/27 04:33:28;;;;;;;9.18;5.42;;;;;;;10.82;61.57;100648.55;1748434;81;21531;-64
2021/04/27 04:36:13;;;;;;;7.35;4.55;;;;;;;10.84;61.41;100645.46;1818657;77;22203;-65
2021/04/27 04:38:59;;;;;;;7.70;4.30;;;;;;;10.79;61.36;100651.23;1777500;80;21079;-53
2021/04/27 04:41:35;;;;;;;6.80;4.75;;;;;;;10.80;61.30;100634.09;1807725;77;22182;-65
2021/04/27 04:44:05;;;;;;;6.03;4.40;;;;;;;10.76;61.36;100636.78;1745914;81;21138;-52
2021/04/27 04:46:54;;;;;;;5.97;4.47;;;;;;;10.78;61.34;100636.33;1751377;81;21180;-66
2021/04/27 04:49:41;;;;;;;7.37;4.72;;;;;;;10.77;61.36;100633.27;1751195;81;21115;-65
2021/04/27 04:52:22;;;;;;;6.65;4.83;;;;;;;10.76;61.40;100631.06;1798603;77;22177;-65
2021/04/27 04:55:11;;;;;;;8.00;5.17;;;;;;;9.90;63.44;100630.77;1760292;81;21149;-52
2021/04/27 04:57:57;;;;;;;6.72;4.65;;;;;;;9.70;64.37;100630.88;1761863;80;21618;-66
2021/04/27 05:00:26;;;;;;;7.75;4.90;;;;;;;9.68;64.79;100628.69;1738649;81;21142;-55
2021/04/27 05:03:10;;;;;;;8.13;4.65;;;;;;;9.71;65.18;100629.13;1853157;77;22139;-63
2021/04/27 05:05:44;;;;;;;6.40;4.50;;;;;;;9.77;65.17;100633.91;1712130;82;21289;-64
2021/04/27 05:08:41;;;;;;;5.87;4.62;;;;;;;9.81;65.17;100629.50;1729592;82;21166;-63
2021/04/27 05:11:12;;;;;;;9.58;5.03;;;;;;;9.87;65.28;100629.92;1828587;77;22190;-63
2021/04/27 05:13:41;;;;;;;6.42;5.15;;;;;;;9.89;65.58;100633.42;1755031;80;21114;-65
2021/04/27 05:16:10;;;;;;;6.37;5.10;;;;;;;9.91;65.34;100635.14;1731773;81;21582;-64
2021/04/27 05:18:39;;;;;;;6.90;5.55;;;;;;;9.90;65.54;100633.39;1752296;81;21134;-64
2021/04/27 05:21:07;;;;;;;6.75;5.33;;;;;;;9.94;65.64;100636.87;1761967;80;21154;-54
2021/04/27 05:23:35;;;;;;;8.40;5.22;;;;;;;9.99;65.46;100638.17;1761041;81;21130;-64
2021/04/27 05:26:03;;;;;;;8.13;5.40;;;;;;;10.00;65.48;100643.41;1739813;81;21158;-64
2021/04/27 05:28:32;;;;;;;6.75;5.20;;;;;;;10.01;65.54;100637.27;1761797;81;21135;-55
2021/04/27 05:31:00;;;;;;;5.95;4.80;;;;;;;10.01;65.42;100639.91;1724812;82;21696;-64
2021/04/27 05:33:29;;;;;;;6.97;4.75;;;;;;;9.97;65.43;100640.37;1691498;84;21112;-64
2021/04/27 05:35:57;;;;;;;7.03;4.70;;;;;;;10.73;63.54;100635.49;1702800;83;21593;-54
2021/04/27 05:38:25;;;;;;;6.12;4.60;;;;;;;10.97;62.54;100631.30;1697178;84;21623;-63
2021/04/27 05:40:53;;;;;;;6.17;4.87;;;;;;;11.03;62.21;100626.86;1721500;82;21159;-54
2021/04/27 05:43:20;;;;;;;7.03;4.67;;;;;;;11.05;61.99;100623.77;1711519;83;21694;-54
2021/04/27 05:45:48;;;;;;;5.72;4.33;;;;;;;11.06;61.89;100614.52;1706676;83;21174;-63
2021/04/27 05:48:16;;;;;;;6.20;4.17;;;;;;;11.09;61.73;100609.68;1671488;84;21134;-55
2021/04/27 05:50:44;;;;;;;7.20;4.22;;;;;;;11.09;61.64;100609.22;1708608;83;21129;-54
2021/04/27 05:53:12;;;;;;;8.63;5.00;;;;;;;11.10;61.57;100609.65;1725115;83;21181;-63
2021/04/27 05:55:41;;;;;;;8.43;4.37;;;;;;;11.10;61.51;100603.06;1713571;83;21154;-55
2021/04/27 05:58:09;;;;;;;7.12;4.70;;;;;;;11.10;61.44;100599.57;1697180;84;21174;-55
2021/04/27 06:00:37;;;;;;;7.00;4.85;;;;;;;11.15;61.63;100599.94;1706533;82;21601;-54
2021/04/27 06:03:06;;;;;;;8.73;5.13;;;;;;;11.22;61.65;100596.81;1718221;83;21335;-54
2021/04/27 06:05:34;;;;;;;5.30;4.22;;;;;;;11.23;61.89;100598.55;1711083;83;21724;-63
2021/04/27 06:08:02;;;;;;;10.95;4.55;;;;;;;11.21;61.93;100607.34;1725587;82;21308;-55
2021/04/27 06:10:29;;;;;;;6.75;4.70;;;;;;;11.16;62.10;100601.69;1715849;83;21143;-63
2021/04/27 06:12:57;;;;;;;9.48;5.05;;;;;;;11.16;62.29;100606.09;1702783;83;21622;-64
2021/04/27 06:15:25;;;;;;;7.05;4.75;;;;;;;11.20;62.29;100606.49;1689459;85;21207;-56
2021/04/27 06:17:52;;;;;;;7.03;4.67;;;;;;;11.26;62.21;100597.63;1705250;83;21170;-55
2021/04/27 06:20:20;;;;;;;7.40;4.55;;;;;;;11.28;62.07;100603.76;1720476;83;21275;-64
2021/04/27 06:22:48;;;;;;;6.40;4.15;;;;;;;11.28;61.80;100593.22;1734524;82;21164;-63
2021/04/27 06:25:17;;;;;;;9.03;4.05;;;;;;;11.23;61.76;100591.97;1726084;83;21173;-64
2021/04/27 06:27:45;;;;;;;6.40;4.03;;;;;;;11.23;61.88;100601.19;1754350;80;21180;-64
2021/04/27 06:30:15;;;;;;;6.95;4.30;;;;;;;11.25;61.64;100602.47;1751598;82;21119;-64
2021/04/27 06:32:47;;;;;;;12.80;4.40;;;;;;;11.25;61.57;100596.78;1755666;80;21146;-55
2021/04/27 06:35:15;;;;;;;7.05;4.45;;;;;;;11.25;61.46;100594.14;1756553;82;21605;-54
2021/04/27 06:37:44;;;;;;;9.75;5.05;;;;;;;11.23;61.37;100582.75;1756070;82;21304;-55
2021/04/27 06:40:13;;;;;;;10.35;5.20;;;;;;;11.24;61.45;100577.91;1745480;81;21166;-64
2021/04/27 06:42:41;;;;;;;6.75;4.00;;;;;;;11.25;61.44;100573.06;1726129;82;21208;-65
2021/04/27 06:45:11;;;;;;;8.30;3.90;;;;;;;11.24;61.38;100564.73;1744173;82;21166;-55
2021/04/27 06:47:38;;;;;;;8.27;3.97;;;;;;;11.25;61.38;100556.36;1756318;80;21150;-63
2021/04/27 06:50:21;;;;;;;7.50;5.17;;;;;;;11.24;61.39;100533.55;1766635;81;22304;-54
2021/04/27 06:52:50;;;;;;;9.13;4.62;;;;;;;11.22;61.56;100530.94;1765911;80;21134;-63
2021/04/27 06:55:18;;;;;;;7.08;4.45;;;;;;;11.21;61.60;100534.47;1766868;81;21278;-63
2021/04/27 06:57:46;;;;;;;7.60;4.37;;;;;;;11.22;61.64;100531.37;1760063;81;21260;-63
2021/04/27 07:00:15;;;;;;;8.65;4.45;;;;;;;11.21;61.70;100539.73;1736439;83;21185;-63
2021/04/27 07:02:43;;;;;;;6.40;4.62;;;;;;;11.21;61.73;100529.20;1766421;80;21123;-63
2021/04/27 07:05:13;;;;;;;8.05;4.70;;;;;;;11.22;61.80;100524.78;1765921;80;21173;-63
2021/04/27 07:07:42;;;;;;;7.10;5.67;;;;;;;11.23;61.77;100529.16;1759948;81;21182;-62
2021/04/27 07:10:13;;;;;;;7.42;5.03;;;;;;;11.29;61.75;100514.59;1764560;81;21142;-64
2021/04/27 07:12:41;;;;;;;6.15;4.47;;;;;;;11.30;61.76;100514.56;1764860;81;21589;-63
2021/04/27 07:15:11;;;;;;;6.40;4.87;;;;;;;11.32;61.81;100510.61;1765337;81;21158;-55
2021/04/27 07:17:38;;;;;;;8.05;4.58;;;;;;;11.29;61.89;100501.42;1761483;80;21576;-63
2021/04/27 07:20:09;;;;;;;8.03;4.92;;;;;;;11.28;61.92;100496.58;1749523;81;21149;-62
2021/04/27 07:22:37;;;;;;;5.47;4.33;;;;;;;11.29;61.91;100502.74;1766311;80;21138;-55
2021/04/27 07:25:06;;;;;;;6.03;4.35;;;;;;;11.27;61.90;100490.88;1755561;81;21454;-62
2021/04/27 07:27:34;;;;;;;9.23;4.67;;;;;;;11.28;61.94;100487.82;1732786;83;21320;-54
2021/04/27 07:30:04;;;;;;;6.80;4.40;;;;;;;11.28;62.03;100484.72;1766529;81;21926;-62
2021/04/27 07:32:32;;;;;;;8.28;4.87;;;;;;;11.32;61.87;100484.26;1766620;81;21190;-55
2021/04/27 07:35:00;;;;;;;11.48;4.70;;;;;;;11.36;61.72;100482.44;1764475;81;21145;-55
2021/04/27 07:37:28;;;;;;;6.95;4.83;;;;;;;11.37;61.59;100478.91;1758847;81;21199;-56
2021/04/27 07:39:56;;;;;;;7.58;4.60;;;;;;;11.37;61.69;100473.20;1761146;81;21166;-62
2021/04/27 07:42:23;;;;;;;7.87;5.03;;;;;;;11.40;61.69;100475.80;1747399;81;21537;-54
2021/04/27 07:44:51;;;;;;;6.03;4.60;;;;;;;11.41;61.77;100470.95;1728225;81;21572;-55
2021/04/27 07:47:19;;;;;;;7.37;4.90;;;;;;;11.41;61.79;100464.37;1749114;81;21608;-62
2021/04/27 07:49:47;;;;;;;6.78;4.80;;;;;;;11.41;61.76;100460.84;1740740;81;21147;-54
2021/04/27 07:52:14;;;;;;;6.25;4.65;;;;;;;11.41;61.82;100459.09;1737522;82;21678;-54
2021/04/27 07:54:42;;;;;;;10.50;7.60;;;;;;;11.40;61.83;100449.45;1732405;82;21316;-63
2021/04/27 07:57:10;;;;;;;10.25;7.72;;;;;;;11.40;61.95;100445.50;1733624;82;21154;-55
2021/04/27 07:59:38;;;;;;;10.30;7.30;;;;;;;11.41;61.97;100438.02;1733654;82;21613;-54
2021/04/27 08:02:06;;;;;;;11.68;7.12;;;;;;;11.41;62.00;100447.67;1731979;82;21549;-55
2021/04/27 08:04:34;;;;;;;12.53;7.58;;;;;;;11.41;62.07;100442.40;1734692;82;21300;-62
2021/04/27 08:07:02;;;;;;;25.57;11.05;;;;;;;11.42;62.20;100437.55;1733182;82;21874;-62
2021/04/27 08:09:30;;;;;;;20.52;9.55;;;;;;;11.43;62.29;100432.27;1739059;82;21309;-54
2021/04/27 08:11:58;;;;;;;46.83;17.45;;;;;;;11.45;62.30;100426.53;1736395;82;21573;-54
2021/04/27 08:14:26;;;;;;;47.40;15.50;;;;;;;11.49;62.45;100422.08;1734153;82;21586;-54
2021/04/27 08:16:55;;;;;;;20.08;8.58;;;;;;;11.53;62.61;100423.77;1736055;82;21269;-61
2021/04/27 08:19:25;;;;;;;15.60;7.47;;;;;;;11.54;62.49;100421.56;1734481;82;21138;-55
2021/04/27 08:21:53;;;;;;;13.62;6.80;;;;;;;11.56;62.51;100422.41;1739026;82;21317;-61
2021/04/27 08:24:22;;;;;;;10.98;6.05;;;;;;;11.60;62.49;100416.20;1739639;82;21175;-62
2021/04/27 08:26:52;;;;;;;11.22;6.30;;;;;;;11.63;62.39;100421.00;1735339;82;21192;-55
2021/04/27 08:29:19;;;;;;;10.20;5.80;;;;;;;11.64;62.41;100409.55;1735131;82;21617;-62
2021/04/27 08:31:49;;;;;;;10.08;5.47;;;;;;;11.66;62.36;100407.77;1731859;82;21273;-55
2021/04/27 08:34:17;;;;;;;8.28;5.35;;;;;;;10.70;64.89;100412.61;1731745;82;21586;-62
2021/04/27 08:36:44;;;;;;;8.23;5.10;;;;;;;10.58;65.39;100417.59;1739098;82;21737;-55
2021/04/27 08:39:12;;;;;;;7.97;4.65;;;;;;;10.54;65.65;100414.56;1738487;82;21289;-55
2021/04/27 08:41:40;;;;;;;6.92;4.70;;;;;;;10.52;65.93;100404.49;1735459;82;21550;-62
2021/04/27 08:44:08;;;;;;;7.55;5.10;;;;;;;10.52;66.08;100404.06;1736226;82;21164;-62
2021/04/27 08:46:36;;;;;;;18.37;10.28;;;;;;;10.53;66.25;100390.45;1739178;82;21135;-62
2021/04/27 08:49:05;;;;;;;15.28;8.03;;;;;;;10.59;67.18;100400.91;1739856;82;21199;-62
2021/04/27 08:51:33;;;;;;;23.77;11.33;;;;;;;10.64;66.67;100399.52;1736734;82;21504;-55
2021/04/27 08:54:05;;;;;;;21.65;11.20;;;;;;;10.63;66.63;100396.46;1729284;82;21312;-55
2021/04/27 08:56:33;;;;;;;34.67;15.90;;;;;;;10.61;66.62;100383.77;1729631;82;21200;-62
2021/04/27 08:59:02;;;;;;;11.22;6.97;;;;;;;10.59;66.74;100382.48;1728682;82;21163;-56
2021/04/27 09:01:30;;;;;;;10.20;6.10;;;;;;;10.56;66.33;100373.30;1743714;82;21106;-62
2021/04/27 09:03:59;;;;;;;16.30;7.80;;;;;;;10.53;66.29;100382.13;1746827;82;21190;-55
2021/04/27 09:06:28;;;;;;;11.50;6.70;;;;;;;10.49;66.51;100381.73;1744562;82;21145;-55
2021/04/27 09:08:58;;;;;;;11.85;6.08;;;;;;;10.51;66.53;100381.27;1747248;82;21158;-63
2021/04/27 09:11:41;;;;;;;12.43;7.00;;;;;;;10.48;66.57;100360.68;1752743;82;21833;-55
2021/04/27 09:14:18;;;;;;;10.38;6.10;;;;;;;10.44;66.67;100378.28;1736553;82;21188;-55
2021/04/27 09:17:03;;;;;;;7.05;5.50;;;;;;;10.41;66.74;100374.36;1746153;82;21171;-62
2021/04/27 09:19:50;;;;;;;6.67;5.28;;;;;;;10.39;66.76;100374.83;1731671;83;21653;-55
2021/04/27 09:25:07;;;;;;;8.38;5.30;;;;;;;10.42;66.92;100357.69;1815037;77;22190;-54
2021/04/27 09:27:39;;;;;;;7.08;5.08;;;;;;;10.36;66.95;100352.47;1759931;81;21158;-61
2021/04/27 09:30:27;;;;;;;6.15;4.22;;;;;;;10.32;67.05;100348.13;1762219;81;21704;-62
2021/04/27 09:33:06;;;;;;;6.45;4.80;;;;;;;10.27;67.10;100341.16;1754813;81;21112;-55
2021/04/27 09:35:41;;;;;;;8.38;5.50;;;;;;;10.23;67.25;100340.77;1758206;81;21137;-63
2021/04/27 09:38:22;;;;;;;6.17;4.55;;;;;;;10.24;67.28;100335.92;1751692;81;21407;-62
2021/04/27 09:41:00;;;;;;;7.00;4.30;;;;;;;10.24;67.39;100344.28;1753571;81;21158;-63
2021/04/27 09:43:33;;;;;;;7.10;4.90;;;;;;;10.23;67.43;100339.91;1736682;82;21681;-62
2021/04/27 09:46:05;;;;;;;6.10;4.28;;;;;;;10.23;67.63;100334.19;1738144;82;21480;-56
2021/04/27 09:48:43;;;;;;;6.30;4.20;;;;;;;10.21;67.25;100337.27;1738428;82;21181;-62
2021/04/27 09:51:19;;;;;;;5.92;4.47;;;;;;;11.13;64.60;100334.34;1740230;81;21191;-61
2021/04/27 09:53:55;;;;;;;6.67;4.03;;;;;;;11.26;63.93;100328.42;1752961;81;21272;-62
2021/04/27 09:56:49;;;;;;;5.95;3.87;;;;;;;11.28;63.72;100327.95;1761781;81;21154;-62
2021/04/27 09:59:28;;;;;;;6.00;3.60;;;;;;;11.31;63.53;100333.17;1760991;81;21146;-62
2021/04/27 10:02:01;;;;;;;4.90;3.62;;;;;;;11.37;63.32;100328.70;1737088;82;21163;-56
2021/04/27 10:04:30;;;;;;;7.12;3.95;;;;;;;11.43;63.09;100322.02;1753531;81;21292;-56
2021/04/27 10:07:01;;;;;;;6.67;4.30;;;;;;;11.44;63.11;100319.38;1753907;81;21584;-56
2021/04/27 10:09:30;;;;;;;6.42;3.55;;;;;;;11.41;63.02;100315.47;1739382;81;21292;-63
2021/04/27 10:11:59;;;;;;;5.25;3.65;;;;;;;11.37;62.95;100308.94;1728285;82;21941;-56
2021/04/27 10:14:26;;;;;;;6.53;3.70;;;;;;;11.34;63.13;100312.51;1707236;82;21624;-55
2021/04/27 10:16:54;;;;;;;5.53;3.98;;;;;;;11.30;63.28;100310.81;1748966;82;21151;-56
2021/04/27 10:19:22;;;;;;;6.05;3.90;;;;;;;11.28;63.39;100306.02;1751445;81;21149;-65
2021/04/27 10:21:51;;;;;;;4.92;3.40;;;;;;;11.22;63.63;100307.43;1755949;81;21126;-56
2021/04/27 10:24:23;;;;;;;6.40;4.00;;;;;;;11.25;63.86;100304.31;1752902;81;21194;-63
2021/04/27 10:26:50;;;;;;;5.60;4.12;;;;;;;11.24;63.89;100289.84;1746835;81;21666;-63
2021/04/27 10:29:24;;;;;;;5.42;4.20;;;;;;;11.22;64.08;100297.78;1741598;82;21277;-56
2021/04/27 10:32:19;;;;;;;6.40;4.60;;;;;;;11.26;64.02;100298.13;1748407;82;21146;-55
2021/04/27 10:35:03;;;;;;;5.83;3.95;;;;;;;11.27;64.00;100289.78;1747888;82;21369;-56
2021/04/27 10:37:52;;;;;;;5.70;3.77;;;;;;;11.30;64.03;100291.05;1742542;81;21134;-56
2021/04/27 10:40:52;;;;;;;5.03;3.65;;;;;;;11.32;64.03;100276.09;1747697;82;21621;-56
2021/04/27 10:43:29;;;;;;;4.87;4.12;;;;;;;11.35;64.06;100280.00;1746918;82;21143;-55
2021/04/27 10:46:08;;;;;;;4.70;3.75;;;;;;;11.37;64.08;100281.27;1735491;82;21147;-63
2021/04/27 10:48:44;;;;;;;5.40;3.62;;;;;;;11.37;64.13;100286.54;1706500;84;21601;-63
2021/04/27 10:51:24;;;;;;;4.78;3.87;;;;;;;11.37;64.17;100279.52;1706079;84;21174;-56
2021/04/27 10:54:19;;;;;;;5.20;4.05;;;;;;;11.41;64.23;100271.98;1737812;82;21292;-62
2021/04/27 10:57:07;;;;;;;5.62;4.15;;;;;;;11.45;64.23;100263.56;1733455;82;21593;-64
2021/04/27 11:00:01;;;;;;;4.97;4.00;;;;;;;11.47;64.26;100264.41;1727445;83;21657;-64
2021/04/27 11:02:31;;;;;;;4.85;4.25;;;;;;;11.42;64.62;100257.03;1727255;83;21320;-63
2021/04/27 11:05:01;;;;;;;6.08;4.28;;;;;;;11.52;64.25;100265.62;1728370;82;21312;-63
2021/04/27 11:07:34;;;;;;;7.78;4.65;;;;;;;11.49;64.27;100266.57;1728375;81;21653;-63
2021/04/27 11:10:07;;;;;;;5.50;4.00;;;;;;;11.54;64.29;100262.52;1745805;82;21558;-55
2021/04/27 11:12:42;;;;;;;10.55;4.78;;;;;;;11.56;64.23;100263.36;1746017;82;21139;-63
2021/04/27 11:15:13;;;;;;;8.40;5.60;;;;;;;11.52;64.55;100261.24;1744021;82;21265;-56
2021/04/27 11:18:04;;;;;;;4.60;3.83;;;;;;;11.50;64.59;100266.98;1748200;82;21138;-55
2021/04/27 11:20:53;;;;;;;5.42;3.75;;;;;;;11.49;64.54;100257.34;1750158;82;21103;-55
2021/04/27 11:23:51;;;;;;;6.35;4.42;;;;;;;11.47;64.54;100258.28;1749780;82;21625;-64
2021/04/27 11:26:38;;;;;;;6.10;3.90;;;;;;;11.47;64.54;100256.97;1726767;83;21347;-64
2021/04/27 11:29:17;;;;;;;5.70;4.33;;;;;;;11.44;64.54;100247.33;1721356;83;21179;-65
2021/04/27 11:32:05;;;;;;;6.83;4.05;;;;;;;11.38;64.66;100252.27;1734381;83;21630;-62
2021/04/27 11:34:58;;;;;;;4.25;3.70;;;;;;;11.40;64.63;100250.48;1728683;83;21171;-66
2021/04/27 11:37:38;;;;;;;4.65;3.30;;;;;;;11.40;64.66;100249.59;1732018;83;21301;-57
2021/04/27 11:40:23;;;;;;;4.65;3.65;;;;;;;11.38;64.56;100250.95;1734693;82;21598;-66
2021/04/27 11:43:30;;;;;;;4.83;3.10;;;;;;;11.35;64.61;100247.05;1734263;83;21156;-65
2021/04/27 11:45:59;;;;;;;4.62;3.42;;;;;;;11.33;64.62;100255.44;1724723;83;21713;-64
2021/04/27 11:48:26;;;;;;;4.53;3.87;;;;;;;11.33;64.74;100258.06;1716486;83;21667;-63
2021/04/27 11:50:54;;;;;;;4.47;3.47;;;;;;;11.35;64.79;100251.01;1716557;83;21615;-55
2021/04/27 11:53:33;;;;;;;;;;;;;;;;;;;;;